Theologos P . — SZNB — position and weather

sailwx.info

Track history (hours):
 
Tides and Currents Weather Stations Pressure Air Temp Water Temp Dewpoint Dewpoint Depression Visibility Wind Speed Wind Dir Waves Ship Positions

Theologos P .

Last reported at 2015-Apr-02 09:29 UTC. Time now 2015-Apr-02 09:40 UTC.
Position N 38°01' E 024°01'.

Length 118 m; draft 4.5 m.

Type: Ship. MMSI: 240521000.

Date/timePositionNaut miles runAvg speedWind from/ knotsBaromVisibWave heightAir tempDewpointWater temp
2015-Apr-02 09:29N 38°01' E 024°01'1718.1
2015-Apr-02 08:31N 37°56' E 024°22'53 7.7
2015-Apr-02 01:33N 37°28' E 025°20'0 0.0
2015-Apr-02 00:33N 37°28' E 025°20'0 0.0
2015-Apr-01 23:33N 37°28' E 025°20'0 0.0
2015-Apr-01 22:33N 37°28' E 025°20'0 0.0
2015-Apr-01 21:33N 37°28' E 025°20'0 0.0
2015-Apr-01 20:33N 37°28' E 025°20'4 4.1
2015-Apr-01 19:33N 37°29' E 025°15'8 7.9
2015-Apr-01 18:33N 37°33' E 025°06'4514.5
2015-Apr-01 15:29N 37°57' E 024°18'14 2.4
2015-Apr-01 09:23N 38°02' E 024°01'1618.4
2015-Apr-01 08:31N 37°56' E 024°20'2814.3
2015-Apr-01 06:32N 37°43' E 024°52'1717.7
2015-Apr-01 05:33N 37°32' E 025°09'9 9.2
2015-Apr-01 04:33N 37°28' E 025°20'0 0.0
2015-Apr-01 03:33N 37°28' E 025°20'0 0.0
2015-Apr-01 02:33N 37°28' E 025°20'0 0.0
2015-Apr-01 01:33N 37°28' E 025°20'0 0.0
2015-Apr-01 00:33N 37°28' E 025°20'0 0.0
2015-Mar-31 23:33N 37°28' E 025°20'0 0.0
2015-Mar-31 22:33N 37°28' E 025°20'0 0.0
2015-Mar-31 21:33N 37°28' E 025°20'0 0.0
2015-Mar-31 20:33N 37°28' E 025°20'0 0.0
2015-Mar-31 19:33N 37°28' E 025°20'9 9.4
2015-Mar-31 18:34N 37°32' E 025°09'4915.1
2015-Mar-31 15:20N 37°57' E 024°16'13 2.1
2015-Mar-31 09:19N 38°01' E 024°01'1418.0
2015-Mar-31 08:32N 37°57' E 024°18'3414.6
2015-Mar-31 06:12N 37°41' E 024°55'1218.2
2015-Mar-31 05:33N 37°33' E 025°07'1111.4
2015-Mar-31 04:33N 37°28' E 025°20'0 0.0
2015-Mar-31 03:33N 37°28' E 025°20'0 0.0
2015-Mar-31 02:33N 37°28' E 025°20'0 0.0
2015-Mar-31 01:33N 37°28' E 025°20'0 0.0
2015-Mar-31 00:34N 37°28' E 025°20'0 0.0
2015-Mar-30 23:33N 37°28' E 025°20'0 0.0
2015-Mar-30 22:34N 37°28' E 025°20'0 0.0
2015-Mar-30 21:34N 37°28' E 025°20'0 0.0
2015-Mar-30 20:34N 37°28' E 025°20'1 1.0
2015-Mar-30 19:34N 37°28' E 025°18'10 9.6
2015-Mar-30 18:33N 37°32' E 025°08'4714.8
2015-Mar-30 15:22N 37°57' E 024°17'13 2.2
2015-Mar-30 09:18N 38°02' E 024°01'1417.8
2015-Mar-30 08:32N 37°57' E 024°17'3214.6
2015-Mar-30 06:22N 37°43' E 024°53'1518.5
2015-Mar-30 05:33N 37°33' E 025°07'1111.1
2015-Mar-30 04:33N 37°28' E 025°20'0 0.0
2015-Mar-30 03:33N 37°28' E 025°20'0 0.0
2015-Mar-30 02:33N 37°28' E 025°20'0 0.0
2015-Mar-30 01:33N 37°28' E 025°20'0 0.0
2015-Mar-30 00:33N 37°28' E 025°20'0 0.0
2015-Mar-29 23:33N 37°28' E 025°20'0 0.0
2015-Mar-29 22:33N 37°28' E 025°20'0 0.0
2015-Mar-29 21:33N 37°28' E 025°20'0 0.0
2015-Mar-29 20:33N 37°28' E 025°20'0 0.0
2015-Mar-29 19:33N 37°28' E 025°20'9 9.2
2015-Mar-29 18:33N 37°32' E 025°09'5711.5
2015-Mar-29 13:33N 38°00' E 024°06'4615.2
2015-Mar-29 10:30N 37°39' E 024°58'1212.6
2015-Mar-29 09:33N 37°31' E 025°10'8 8.5
2015-Mar-29 08:33N 37°28' E 025°20'0 0.0
2015-Mar-29 07:33N 37°28' E 025°20'0 0.0
2015-Mar-29 06:33N 37°28' E 025°20'0 0.0
2015-Mar-29 05:27N 37°28' E 025°20'0 0.0
2015-Mar-29 04:09N 37°28' E 025°20'0 0.0
2015-Mar-29 03:31N 37°28' E 025°20'0 0.0
2015-Mar-29 02:31N 37°28' E 025°20'0 0.0
2015-Mar-29 01:33N 37°28' E 025°20'0 0.0
2015-Mar-29 00:32N 37°28' E 025°20'0 0.0
2015-Mar-28 23:33N 37°28' E 025°20'0 0.0
2015-Mar-28 22:33N 37°28' E 025°20'0 0.0
2015-Mar-28 21:33N 37°28' E 025°20'0 0.0
2015-Mar-28 20:33N 37°28' E 025°20'10 9.8
2015-Mar-28 19:33N 37°32' E 025°09'4815.4
2015-Mar-28 16:28N 37°57' E 024°17'10 5.2
2015-Mar-28 14:33N 38°01' E 024°05'1818.5
2015-Mar-28 13:33N 37°54' E 024°27'2913.9
2015-Mar-28 11:29N 37°38' E 024°58'1212.6
2015-Mar-28 10:33N 37°32' E 025°10'9 8.7
2015-Mar-28 09:33N 37°28' E 025°20'0 0.0
2015-Mar-28 08:33N 37°28' E 025°20'0 0.0
2015-Mar-28 05:33N 37°28' E 025°20'0 0.0
2015-Mar-28 04:33N 37°28' E 025°20'0 0.0
2015-Mar-28 03:33N 37°28' E 025°20'0 0.0
2015-Mar-28 02:33N 37°28' E 025°20'0 0.0
2015-Mar-28 01:33N 37°28' E 025°20'0 0.0
2015-Mar-28 00:33N 37°28' E 025°20'0 0.0
2015-Mar-27 23:33N 37°28' E 025°20'0 0.0
2015-Mar-27 22:33N 37°28' E 025°20'0 0.0
2015-Mar-27 21:33N 37°28' E 025°20'1 0.7
2015-Mar-27 20:33N 37°28' E 025°19'1110.7
2015-Mar-27 19:33N 37°33' E 025°06'5014.7
2015-Mar-27 16:07N 37°58' E 024°12'9 1.6
2015-Mar-27 10:34N 38°01' E 024°01'1818.0
2015-Mar-27 09:33N 37°54' E 024°22'2512.4
2015-Mar-27 07:32N 37°44' E 024°51'1818.4
2015-Mar-27 06:33N 37°32' E 025°08'1010.1
2015-Mar-27 05:33N 37°28' E 025°20'0 0.0
2015-Mar-27 04:34N 37°28' E 025°20'0 0.0
2015-Mar-27 03:33N 37°28' E 025°20'0 0.0
2015-Mar-27 02:33N 37°28' E 025°20'0 0.0
2015-Mar-27 01:33N 37°28' E 025°20'0 0.0
2015-Mar-27 00:34N 37°28' E 025°20'0 0.0
2015-Mar-26 23:33N 37°28' E 025°20'0 0.0
2015-Mar-26 22:33N 37°28' E 025°20'0 0.0
2015-Mar-26 21:34N 37°28' E 025°20'5 5.3
2015-Mar-26 20:33N 37°30' E 025°13'9 9.3
2015-Mar-26 19:33N 37°34' E 025°03'12 1.0
2015-Mar-26 07:23N 37°43' E 024°53'1619.4
2015-Mar-26 06:33N 37°32' E 025°08'10 9.9
2015-Mar-26 05:33N 37°28' E 025°20'0 0.0
2015-Mar-26 04:33N 37°28' E 025°20'0 0.0
2015-Mar-26 03:33N 37°28' E 025°20'0 0.0
2015-Mar-26 02:33N 37°28' E 025°20'0 0.0
2015-Mar-26 01:33N 37°28' E 025°20'0 0.0
2015-Mar-26 00:33N 37°28' E 025°20'0 0.0
2015-Mar-25 23:33N 37°28' E 025°20'0 0.0
2015-Mar-25 22:33N 37°28' E 025°20'0 0.0
2015-Mar-25 21:33N 37°28' E 025°20'3 2.7
2015-Mar-25 20:33N 37°29' E 025°16'1313.1
2015-Mar-25 19:33N 37°35' E 025°02'8 1.1
2015-Mar-25 12:11N 37°40' E 024°54'1219.1
2015-Mar-25 11:33N 37°33' E 025°06'1211.8
2015-Mar-25 10:33N 37°28' E 025°19'0 0.1
2015-Mar-25 09:34N 37°28' E 025°20'0 0.0
2015-Mar-25 08:33N 37°28' E 025°20'0 0.0
2015-Mar-25 07:33N 37°28' E 025°20'0 0.0
2015-Mar-25 06:34N 37°28' E 025°20'0 0.0
2015-Mar-25 05:34N 37°28' E 025°20'0 0.0
2015-Mar-25 04:34N 37°28' E 025°20'0 0.0
2015-Mar-25 03:33N 37°28' E 025°20'0 0.0
2015-Mar-25 02:34N 37°28' E 025°20'0 0.0
2015-Mar-25 01:33N 37°28' E 025°20'0 0.0
2015-Mar-25 00:34N 37°28' E 025°20'0 0.0
2015-Mar-24 23:33N 37°28' E 025°20'0 0.0
2015-Mar-24 22:33N 37°28' E 025°20'0 0.0
2015-Mar-24 21:33N 37°28' E 025°20'0 0.0
2015-Mar-24 20:33N 37°28' E 025°20'9 9.3
2015-Mar-24 19:34N 37°32' E 025°09'2 0.2
2015-Mar-24 06:33N 37°33' E 025°07'1111.2
2015-Mar-24 05:33N 37°28' E 025°20'0 0.0
2015-Mar-24 04:33N 37°28' E 025°20'0 0.0
2015-Mar-24 03:33N 37°28' E 025°20'0 0.0
2015-Mar-24 02:33N 37°28' E 025°20'0 0.0
2015-Mar-24 01:34N 37°28' E 025°20'0 0.0
2015-Mar-24 00:33N 37°28' E 025°20'0 0.0
2015-Mar-23 23:33N 37°28' E 025°20'0 0.0
2015-Mar-23 22:34N 37°28' E 025°20'0 0.0
2015-Mar-23 21:33N 37°28' E 025°20'0 0.0
2015-Mar-23 20:33N 37°28' E 025°20'9 9.3
2015-Mar-23 19:33N 37°32' E 025°09'  
Track history (hours):
 
Tides and Currents Weather Stations Pressure Air Temp Water Temp Dewpoint Dewpoint Depression Visibility Wind Speed Wind Dir Waves Ship Positions

Theologos P .

Last reported at 2015-Apr-02 09:29 UTC. Time now 2015-Apr-02 09:40 UTC.
Position N 38°01' E 024°01'.

Length 118 m; draft 4.5 m.

Type: Ship. MMSI: 240521000.

Date/timePositionNaut miles runAvg speedWind from/ knotsBaromVisibWave heightAir tempDewpointWater temp
2015-Apr-02 09:29N 38°01' E 024°01'1718.1
2015-Apr-02 08:31N 37°56' E 024°22'53 7.7
2015-Apr-02 01:33N 37°28' E 025°20'0 0.0
2015-Apr-02 00:33N 37°28' E 025°20'0 0.0
2015-Apr-01 23:33N 37°28' E 025°20'0 0.0
2015-Apr-01 22:33N 37°28' E 025°20'0 0.0
2015-Apr-01 21:33N 37°28' E 025°20'0 0.0
2015-Apr-01 20:33N 37°28' E 025°20'4 4.1
2015-Apr-01 19:33N 37°29' E 025°15'8 7.9
2015-Apr-01 18:33N 37°33' E 025°06'4514.5
2015-Apr-01 15:29N 37°57' E 024°18'14 2.4
2015-Apr-01 09:23N 38°02' E 024°01'1618.4
2015-Apr-01 08:31N 37°56' E 024°20'2814.3
2015-Apr-01 06:32N 37°43' E 024°52'1717.7
2015-Apr-01 05:33N 37°32' E 025°09'9 9.2
2015-Apr-01 04:33N 37°28' E 025°20'0 0.0
2015-Apr-01 03:33N 37°28' E 025°20'0 0.0
2015-Apr-01 02:33N 37°28' E 025°20'0 0.0
2015-Apr-01 01:33N 37°28' E 025°20'0 0.0
2015-Apr-01 00:33N 37°28' E 025°20'0 0.0
2015-Mar-31 23:33N 37°28' E 025°20'0 0.0
2015-Mar-31 22:33N 37°28' E 025°20'0 0.0
2015-Mar-31 21:33N 37°28' E 025°20'0 0.0
2015-Mar-31 20:33N 37°28' E 025°20'0 0.0
2015-Mar-31 19:33N 37°28' E 025°20'9 9.4
2015-Mar-31 18:34N 37°32' E 025°09'4915.1
2015-Mar-31 15:20N 37°57' E 024°16'13 2.1
2015-Mar-31 09:19N 38°01' E 024°01'1418.0
2015-Mar-31 08:32N 37°57' E 024°18'3414.6
2015-Mar-31 06:12N 37°41' E 024°55'1218.2
2015-Mar-31 05:33N 37°33' E 025°07'1111.4
2015-Mar-31 04:33N 37°28' E 025°20'0 0.0
2015-Mar-31 03:33N 37°28' E 025°20'0 0.0
2015-Mar-31 02:33N 37°28' E 025°20'0 0.0
2015-Mar-31 01:33N 37°28' E 025°20'0 0.0
2015-Mar-31 00:34N 37°28' E 025°20'0 0.0
2015-Mar-30 23:33N 37°28' E 025°20'0 0.0
2015-Mar-30 22:34N 37°28' E 025°20'0 0.0
2015-Mar-30 21:34N 37°28' E 025°20'0 0.0
2015-Mar-30 20:34N 37°28' E 025°20'1 1.0
2015-Mar-30 19:34N 37°28' E 025°18'10 9.6
2015-Mar-30 18:33N 37°32' E 025°08'4714.8
2015-Mar-30 15:22N 37°57' E 024°17'13 2.2
2015-Mar-30 09:18N 38°02' E 024°01'1417.8
2015-Mar-30 08:32N 37°57' E 024°17'3214.6
2015-Mar-30 06:22N 37°43' E 024°53'1518.5
2015-Mar-30 05:33N 37°33' E 025°07'1111.1
2015-Mar-30 04:33N 37°28' E 025°20'0 0.0
2015-Mar-30 03:33N 37°28' E 025°20'0 0.0
2015-Mar-30 02:33N 37°28' E 025°20'0 0.0
2015-Mar-30 01:33N 37°28' E 025°20'0 0.0
2015-Mar-30 00:33N 37°28' E 025°20'0 0.0
2015-Mar-29 23:33N 37°28' E 025°20'0 0.0
2015-Mar-29 22:33N 37°28' E 025°20'0 0.0
2015-Mar-29 21:33N 37°28' E 025°20'0 0.0
2015-Mar-29 20:33N 37°28' E 025°20'0 0.0
2015-Mar-29 19:33N 37°28' E 025°20'9 9.2
2015-Mar-29 18:33N 37°32' E 025°09'5711.5
2015-Mar-29 13:33N 38°00' E 024°06'4615.2
2015-Mar-29 10:30N 37°39' E 024°58'1212.6
2015-Mar-29 09:33N 37°31' E 025°10'8 8.5
2015-Mar-29 08:33N 37°28' E 025°20'0 0.0
2015-Mar-29 07:33N 37°28' E 025°20'0 0.0
2015-Mar-29 06:33N 37°28' E 025°20'0 0.0
2015-Mar-29 05:27N 37°28' E 025°20'0 0.0
2015-Mar-29 04:09N 37°28' E 025°20'0 0.0
2015-Mar-29 03:31N 37°28' E 025°20'0 0.0
2015-Mar-29 02:31N 37°28' E 025°20'0 0.0
2015-Mar-29 01:33N 37°28' E 025°20'0 0.0
2015-Mar-29 00:32N 37°28' E 025°20'0 0.0
2015-Mar-28 23:33N 37°28' E 025°20'0 0.0
2015-Mar-28 22:33N 37°28' E 025°20'0 0.0
2015-Mar-28 21:33N 37°28' E 025°20'0 0.0
2015-Mar-28 20:33N 37°28' E 025°20'10 9.8
2015-Mar-28 19:33N 37°32' E 025°09'4815.4
2015-Mar-28 16:28N 37°57' E 024°17'10 5.2
2015-Mar-28 14:33N 38°01' E 024°05'1818.5
2015-Mar-28 13:33N 37°54' E 024°27'2913.9
2015-Mar-28 11:29N 37°38' E 024°58'1212.6
2015-Mar-28 10:33N 37°32' E 025°10'9 8.7
2015-Mar-28 09:33N 37°28' E 025°20'0 0.0
2015-Mar-28 08:33N 37°28' E 025°20'0 0.0
2015-Mar-28 05:33N 37°28' E 025°20'0 0.0
2015-Mar-28 04:33N 37°28' E 025°20'0 0.0
2015-Mar-28 03:33N 37°28' E 025°20'0 0.0
2015-Mar-28 02:33N 37°28' E 025°20'0 0.0
2015-Mar-28 01:33N 37°28' E 025°20'0 0.0
2015-Mar-28 00:33N 37°28' E 025°20'0 0.0
2015-Mar-27 23:33N 37°28' E 025°20'0 0.0
2015-Mar-27 22:33N 37°28' E 025°20'0 0.0
2015-Mar-27 21:33N 37°28' E 025°20'1 0.7
2015-Mar-27 20:33N 37°28' E 025°19'1110.7
2015-Mar-27 19:33N 37°33' E 025°06'5014.7
2015-Mar-27 16:07N 37°58' E 024°12'9 1.6
2015-Mar-27 10:34N 38°01' E 024°01'1818.0
2015-Mar-27 09:33N 37°54' E 024°22'2512.4
2015-Mar-27 07:32N 37°44' E 024°51'1818.4
2015-Mar-27 06:33N 37°32' E 025°08'1010.1
2015-Mar-27 05:33N 37°28' E 025°20'0 0.0
2015-Mar-27 04:34N 37°28' E 025°20'0 0.0
2015-Mar-27 03:33N 37°28' E 025°20'0 0.0
2015-Mar-27 02:33N 37°28' E 025°20'0 0.0
2015-Mar-27 01:33N 37°28' E 025°20'0 0.0
2015-Mar-27 00:34N 37°28' E 025°20'0 0.0
2015-Mar-26 23:33N 37°28' E 025°20'0 0.0
2015-Mar-26 22:33N 37°28' E 025°20'0 0.0
2015-Mar-26 21:34N 37°28' E 025°20'5 5.3
2015-Mar-26 20:33N 37°30' E 025°13'9 9.3
2015-Mar-26 19:33N 37°34' E 025°03'12 1.0
2015-Mar-26 07:23N 37°43' E 024°53'1619.4
2015-Mar-26 06:33N 37°32' E 025°08'10 9.9
2015-Mar-26 05:33N 37°28' E 025°20'0 0.0
2015-Mar-26 04:33N 37°28' E 025°20'0 0.0
2015-Mar-26 03:33N 37°28' E 025°20'0 0.0
2015-Mar-26 02:33N 37°28' E 025°20'0 0.0
2015-Mar-26 01:33N 37°28' E 025°20'0 0.0
2015-Mar-26 00:33N 37°28' E 025°20'0 0.0
2015-Mar-25 23:33N 37°28' E 025°20'0 0.0
2015-Mar-25 22:33N 37°28' E 025°20'0 0.0
2015-Mar-25 21:33N 37°28' E 025°20'3 2.7
2015-Mar-25 20:33N 37°29' E 025°16'1313.1
2015-Mar-25 19:33N 37°35' E 025°02'8 1.1
2015-Mar-25 12:11N 37°40' E 024°54'1219.1
2015-Mar-25 11:33N 37°33' E 025°06'1211.8
2015-Mar-25 10:33N 37°28' E 025°19'0 0.1
2015-Mar-25 09:34N 37°28' E 025°20'0 0.0
2015-Mar-25 08:33N 37°28' E 025°20'0 0.0
2015-Mar-25 07:33N 37°28' E 025°20'0 0.0
2015-Mar-25 06:34N 37°28' E 025°20'0 0.0
2015-Mar-25 05:34N 37°28' E 025°20'0 0.0
2015-Mar-25 04:34N 37°28' E 025°20'0 0.0
2015-Mar-25 03:33N 37°28' E 025°20'0 0.0
2015-Mar-25 02:34N 37°28' E 025°20'0 0.0
2015-Mar-25 01:33N 37°28' E 025°20'0 0.0
2015-Mar-25 00:34N 37°28' E 025°20'0 0.0
2015-Mar-24 23:33N 37°28' E 025°20'0 0.0
2015-Mar-24 22:33N 37°28' E 025°20'0 0.0
2015-Mar-24 21:33N 37°28' E 025°20'0 0.0
2015-Mar-24 20:33N 37°28' E 025°20'9 9.3
2015-Mar-24 19:34N 37°32' E 025°09'2 0.2
2015-Mar-24 06:33N 37°33' E 025°07'1111.2
2015-Mar-24 05:33N 37°28' E 025°20'0 0.0
2015-Mar-24 04:33N 37°28' E 025°20'0 0.0
2015-Mar-24 03:33N 37°28' E 025°20'0 0.0
2015-Mar-24 02:33N 37°28' E 025°20'0 0.0
2015-Mar-24 01:34N 37°28' E 025°20'0 0.0
2015-Mar-24 00:33N 37°28' E 025°20'0 0.0
2015-Mar-23 23:33N 37°28' E 025°20'0 0.0
2015-Mar-23 22:34N 37°28' E 025°20'0 0.0
2015-Mar-23 21:33N 37°28' E 025°20'0 0.0
2015-Mar-23 20:33N 37°28' E 025°20'9 9.3
2015-Mar-23 19:33N 37°32' E 025°09'  

Dump ship's entire track history